sensor_id;sensor_type;location;lat;lon;timestamp;temperature;humidity
76040;SHT30;64736;50.462;4.850;2022-12-29T00:02:11;10.71;91.25
76040;SHT30;64736;50.462;4.850;2022-12-29T00:04:38;10.77;90.56
76040;SHT30;64736;50.462;4.850;2022-12-29T00:07:04;10.73;91.14
76040;SHT30;64736;50.462;4.850;2022-12-29T00:09:30;10.83;89.21
76040;SHT30;64736;50.462;4.850;2022-12-29T00:11:57;10.84;88.57
76040;SHT30;64736;50.462;4.850;2022-12-29T00:14:23;10.83;88.32
76040;SHT30;64736;50.462;4.850;2022-12-29T00:17:08;10.87;88.15
76040;SHT30;64736;50.462;4.850;2022-12-29T00:19:33;10.98;86.95
76040;SHT30;64736;50.462;4.850;2022-12-29T00:22:18;10.98;86.74
76040;SHT30;64736;50.462;4.850;2022-12-29T00:25:03;10.94;87.68
76040;SHT30;64736;50.462;4.850;2022-12-29T00:27:47;10.90;87.69
76040;SHT30;64736;50.462;4.850;2022-12-29T00:30:32;10.90;87.29
76040;SHT30;64736;50.462;4.850;2022-12-29T00:33:21;10.93;87.08
76040;SHT30;64736;50.462;4.850;2022-12-29T00:38:47;10.93;86.50
76040;SHT30;64736;50.462;4.850;2022-12-29T00:41:33;10.87;86.67
76040;SHT30;64736;50.462;4.850;2022-12-29T00:44:18;10.90;86.39
76040;SHT30;64736;50.462;4.850;2022-12-29T00:46:43;10.94;85.31
76040;SHT30;64736;50.462;4.850;2022-12-29T00:49:12;10.96;85.02
76040;SHT30;64736;50.462;4.850;2022-12-29T00:52:07;10.91;85.42
76040;SHT30;64736;50.462;4.850;2022-12-29T00:54:36;10.98;85.20
76040;SHT30;64736;50.462;4.850;2022-12-29T00:57:04;11.04;84.75
76040;SHT30;64736;50.462;4.850;2022-12-29T00:59:30;11.06;84.57
76040;SHT30;64736;50.462;4.850;2022-12-29T01:01:56;11.06;84.50
76040;SHT30;64736;50.462;4.850;2022-12-29T01:04:24;11.11;84.10
76040;SHT30;64736;50.462;4.850;2022-12-29T01:06:51;11.11;84.42
76040;SHT30;64736;50.462;4.850;2022-12-29T01:09:18;11.18;83.90
76040;SHT30;64736;50.462;4.850;2022-12-29T01:12:03;11.15;84.46
76040;SHT30;64736;50.462;4.850;2022-12-29T01:14:29;11.14;84.68
76040;SHT30;64736;50.462;4.850;2022-12-29T01:16:56;11.14;85.00
76040;SHT30;64736;50.462;4.850;2022-12-29T01:19:22;11.10;85.73
76040;SHT30;64736;50.462;4.850;2022-12-29T01:21:49;11.06;86.04
76040;SHT30;64736;50.462;4.850;2022-12-29T01:24:17;11.04;86.57
76040;SHT30;64736;50.462;4.850;2022-12-29T01:26:43;11.04;86.49
76040;SHT30;64736;50.462;4.850;2022-12-29T01:29:09;11.03;86.81
76040;SHT30;64736;50.462;4.850;2022-12-29T01:31:35;11.06;86.34
76040;SHT30;64736;50.462;4.850;2022-12-29T01:34:01;10.89;90.55
76040;SHT30;64736;50.462;4.850;2022-12-29T01:36:27;10.63;92.03
76040;SHT30;64736;50.462;4.850;2022-12-29T01:38:53;10.43;93.36
76040;SHT30;64736;50.462;4.850;2022-12-29T01:41:18;10.36;93.41
76040;SHT30;64736;50.462;4.850;2022-12-29T01:51:48;10.28;94.59
76040;SHT30;64736;50.462;4.850;2022-12-29T01:54:45;10.38;92.99
76040;SHT30;64736;50.462;4.850;2022-12-29T01:57:16;10.41;92.58
76040;SHT30;64736;50.462;4.850;2022-12-29T01:59:48;10.39;93.37
76040;SHT30;64736;50.462;4.850;2022-12-29T02:02:16;10.36;93.23
76040;SHT30;64736;50.462;4.850;2022-12-29T02:04:43;10.36;93.57
76040;SHT30;64736;50.462;4.850;2022-12-29T02:07:20;10.32;94.12
76040;SHT30;64736;50.462;4.850;2022-12-29T02:09:48;10.31;94.32
76040;SHT30;64736;50.462;4.850;2022-12-29T02:12:15;10.28;94.47
76040;SHT30;64736;50.462;4.850;2022-12-29T02:14:41;10.31;94.69
76040;SHT30;64736;50.462;4.850;2022-12-29T02:17:26;10.29;94.55
76040;SHT30;64736;50.462;4.850;2022-12-29T02:25:32;10.35;94.26
76040;SHT30;64736;50.462;4.850;2022-12-29T02:33:42;10.38;94.05
76040;SHT30;64736;50.462;4.850;2022-12-29T02:36:24;10.52;92.68
76040;SHT30;64736;50.462;4.850;2022-12-29T02:42:04;10.60;91.67
76040;SHT30;64736;50.462;4.850;2022-12-29T02:44:59;10.63;91.73
76040;SHT30;64736;50.462;4.850;2022-12-29T02:47:35;10.57;91.61
76040;SHT30;64736;50.462;4.850;2022-12-29T02:50:33;10.55;91.06
76040;SHT30;64736;50.462;4.850;2022-12-29T02:53:09;10.53;90.62
76040;SHT30;64736;50.462;4.850;2022-12-29T02:55:37;10.52;90.95
76040;SHT30;64736;50.462;4.850;2022-12-29T02:58:13;10.56;89.76
76040;SHT30;64736;50.462;4.850;2022-12-29T03:06:27;10.67;88.92
76040;SHT30;64736;50.462;4.850;2022-12-29T03:11:36;10.79;88.31
76040;SHT30;64736;50.462;4.850;2022-12-29T03:14:32;10.89;87.64
76040;SHT30;64736;50.462;4.850;2022-12-29T03:17:29;10.93;87.28
76040;SHT30;64736;50.462;4.850;2022-12-29T03:20:04;10.97;86.88
76040;SHT30;64736;50.462;4.850;2022-12-29T03:22:36;10.97;86.52
76040;SHT30;64736;50.462;4.850;2022-12-29T03:25:18;11.10;85.30
76040;SHT30;64736;50.462;4.850;2022-12-29T03:27:53;11.15;85.13
76040;SHT30;64736;50.462;4.850;2022-12-29T03:30:21;11.11;85.38
76040;SHT30;64736;50.462;4.850;2022-12-29T03:32:52;11.18;84.61
76040;SHT30;64736;50.462;4.850;2022-12-29T03:35:23;11.19;84.60
76040;SHT30;64736;50.462;4.850;2022-12-29T03:37:59;11.17;83.93
76040;SHT30;64736;50.462;4.850;2022-12-29T03:40:30;11.25;83.45
76040;SHT30;64736;50.462;4.850;2022-12-29T03:42:57;11.29;83.18
76040;SHT30;64736;50.462;4.850;2022-12-29T03:45:24;11.31;83.42
76040;SHT30;64736;50.462;4.850;2022-12-29T03:47:51;11.31;83.89
76040;SHT30;64736;50.462;4.850;2022-12-29T03:50:17;11.34;83.10
76040;SHT30;64736;50.462;4.850;2022-12-29T03:52:43;11.34;83.95
76040;SHT30;64736;50.462;4.850;2022-12-29T03:55:09;11.27;84.38
76040;SHT30;64736;50.462;4.850;2022-12-29T03:57:35;11.31;83.71
76040;SHT30;64736;50.462;4.850;2022-12-29T04:00:01;11.32;83.59
76040;SHT30;64736;50.462;4.850;2022-12-29T04:02:27;11.31;83.49
76040;SHT30;64736;50.462;4.850;2022-12-29T04:04:52;11.35;83.18
76040;SHT30;64736;50.462;4.850;2022-12-29T04:07:18;11.35;83.07
76040;SHT30;64736;50.462;4.850;2022-12-29T04:09:44;11.31;83.26
76040;SHT30;64736;50.462;4.850;2022-12-29T04:12:09;11.29;83.52
76040;SHT30;64736;50.462;4.850;2022-12-29T04:14:35;11.21;83.89
76040;SHT30;64736;50.462;4.850;2022-12-29T04:17:01;11.17;84.37
76040;SHT30;64736;50.462;4.850;2022-12-29T04:19:27;11.14;83.32
76040;SHT30;64736;50.462;4.850;2022-12-29T04:21:52;11.14;82.73
76040;SHT30;64736;50.462;4.850;2022-12-29T04:24:18;11.17;82.58
76040;SHT30;64736;50.462;4.850;2022-12-29T04:26:44;11.15;82.88
76040;SHT30;64736;50.462;4.850;2022-12-29T04:29:10;11.14;82.47
76040;SHT30;64736;50.462;4.850;2022-12-29T04:31:36;11.12;82.22
76040;SHT30;64736;50.462;4.850;2022-12-29T04:34:01;11.12;82.08
76040;SHT30;64736;50.462;4.850;2022-12-29T04:36:28;11.01;82.26
76040;SHT30;64736;50.462;4.850;2022-12-29T04:38:54;11.00;82.44
76040;SHT30;64736;50.462;4.850;2022-12-29T04:41:19;10.97;82.35
76040;SHT30;64736;50.462;4.850;2022-12-29T04:43:45;10.91;82.64
76040;SHT30;64736;50.462;4.850;2022-12-29T04:46:11;10.97;81.91
76040;SHT30;64736;50.462;4.850;2022-12-29T04:48:37;11.03;81.95
76040;SHT30;64736;50.462;4.850;2022-12-29T04:51:02;10.97;82.21
76040;SHT30;64736;50.462;4.850;2022-12-29T04:53:28;10.91;82.71
76040;SHT30;64736;50.462;4.850;2022-12-29T04:55:55;10.89;82.44
76040;SHT30;64736;50.462;4.850;2022-12-29T04:58:21;10.77;82.63
76040;SHT30;64736;50.462;4.850;2022-12-29T05:00:46;10.79;82.72
76040;SHT30;64736;50.462;4.850;2022-12-29T05:03:12;10.89;81.80
76040;SHT30;64736;50.462;4.850;2022-12-29T05:05:38;10.80;82.80
76040;SHT30;64736;50.462;4.850;2022-12-29T05:08:04;10.83;82.65
76040;SHT30;64736;50.462;4.850;2022-12-29T05:10:30;10.84;82.70
76040;SHT30;64736;50.462;4.850;2022-12-29T05:12:55;10.91;82.37
76040;SHT30;64736;50.462;4.850;2022-12-29T05:15:23;10.91;82.48
76040;SHT30;64736;50.462;4.850;2022-12-29T05:17:48;10.85;82.56
76040;SHT30;64736;50.462;4.850;2022-12-29T05:20:14;10.87;82.74
76040;SHT30;64736;50.462;4.850;2022-12-29T05:22:40;10.83;82.77
76040;SHT30;64736;50.462;4.850;2022-12-29T05:25:06;10.81;82.91
76040;SHT30;64736;50.462;4.850;2022-12-29T05:27:32;10.79;82.56
76040;SHT30;64736;50.462;4.850;2022-12-29T05:29:58;10.79;82.32
76040;SHT30;64736;50.462;4.850;2022-12-29T05:32:24;10.76;82.15
76040;SHT30;64736;50.462;4.850;2022-12-29T05:34:49;10.70;82.58
76040;SHT30;64736;50.462;4.850;2022-12-29T05:37:15;10.73;82.24
76040;SHT30;64736;50.462;4.850;2022-12-29T05:39:41;10.77;81.39
76040;SHT30;64736;50.462;4.850;2022-12-29T05:42:07;10.80;81.06
76040;SHT30;64736;50.462;4.850;2022-12-29T05:44:32;10.80;81.11
76040;SHT30;64736;50.462;4.850;2022-12-29T05:46:58;10.74;80.95
76040;SHT30;64736;50.462;4.850;2022-12-29T05:49:24;10.77;80.46
76040;SHT30;64736;50.462;4.850;2022-12-29T05:51:50;10.74;80.44
76040;SHT30;64736;50.462;4.850;2022-12-29T05:54:16;10.70;80.87
76040;SHT30;64736;50.462;4.850;2022-12-29T05:56:41;10.71;80.40
76040;SHT30;64736;50.462;4.850;2022-12-29T05:59:07;10.73;79.78
76040;SHT30;64736;50.462;4.850;2022-12-29T06:01:33;10.73;79.97
76040;SHT30;64736;50.462;4.850;2022-12-29T06:04:00;10.69;79.87
76040;SHT30;64736;50.462;4.850;2022-12-29T06:06:25;10.66;80.12
76040;SHT30;64736;50.462;4.850;2022-12-29T06:08:51;10.66;79.60
76040;SHT30;64736;50.462;4.850;2022-12-29T06:11:17;10.69;79.43
76040;SHT30;64736;50.462;4.850;2022-12-29T06:13:43;10.74;79.33
76040;SHT30;64736;50.462;4.850;2022-12-29T06:16:09;10.69;79.75
76040;SHT30;64736;50.462;4.850;2022-12-29T06:18:35;10.66;80.04
76040;SHT30;64736;50.462;4.850;2022-12-29T06:21:01;10.67;79.91
76040;SHT30;64736;50.462;4.850;2022-12-29T06:23:27;10.70;80.07
76040;SHT30;64736;50.462;4.850;2022-12-29T06:25:53;10.67;80.36
76040;SHT30;64736;50.462;4.850;2022-12-29T06:28:20;10.67;80.28
76040;SHT30;64736;50.462;4.850;2022-12-29T06:30:46;10.70;80.29
76040;SHT30;64736;50.462;4.850;2022-12-29T06:33:12;10.69;80.28
76040;SHT30;64736;50.462;4.850;2022-12-29T06:35:38;10.71;80.48
76040;SHT30;64736;50.462;4.850;2022-12-29T06:38:04;10.74;79.95
76040;SHT30;64736;50.462;4.850;2022-12-29T06:40:31;10.80;79.70
76040;SHT30;64736;50.462;4.850;2022-12-29T06:42:56;10.83;79.62
76040;SHT30;64736;50.462;4.850;2022-12-29T06:45:22;10.83;79.75
76040;SHT30;64736;50.462;4.850;2022-12-29T06:47:48;10.83;79.52
76040;SHT30;64736;50.462;4.850;2022-12-29T06:50:14;10.77;79.95
76040;SHT30;64736;50.462;4.850;2022-12-29T06:52:40;10.77;79.65
76040;SHT30;64736;50.462;4.850;2022-12-29T06:55:06;10.90;77.24
76040;SHT30;64736;50.462;4.850;2022-12-29T06:57:32;10.94;77.30
76040;SHT30;64736;50.462;4.850;2022-12-29T06:59:58;10.89;77.75
76040;SHT30;64736;50.462;4.850;2022-12-29T07:02:24;10.91;77.00
76040;SHT30;64736;50.462;4.850;2022-12-29T07:04:53;10.85;77.05
76040;SHT30;64736;50.462;4.850;2022-12-29T07:07:19;10.81;77.78
76040;SHT30;64736;50.462;4.850;2022-12-29T07:09:46;10.81;77.75
76040;SHT30;64736;50.462;4.850;2022-12-29T07:12:12;10.63;83.21
76040;SHT30;64736;50.462;4.850;2022-12-29T07:14:37;10.04;88.53
76040;SHT30;64736;50.462;4.850;2022-12-29T07:17:05;9.76;89.95
76040;SHT30;64736;50.462;4.850;2022-12-29T07:19:32;9.63;91.66
76040;SHT30;64736;50.462;4.850;2022-12-29T07:21:58;9.58;91.13
76040;SHT30;64736;50.462;4.850;2022-12-29T07:24:24;9.57;90.73
76040;SHT30;64736;50.462;4.850;2022-12-29T07:26:51;9.63;88.34
76040;SHT30;64736;50.462;4.850;2022-12-29T07:29:18;9.58;89.08
76040;SHT30;64736;50.462;4.850;2022-12-29T07:31:43;9.51;88.87
76040;SHT30;64736;50.462;4.850;2022-12-29T07:34:09;9.51;86.73
